Antigo, Wisconsin
Current Conditions -  °F | °C
As of 12:35 PM on Wednesday 26 Nov 2014 (Local Time) from KAIG Reporting Station
Overcast Overcast  
Wind Chill: 19°   Ceiling: 4100
Heat Index: 19°   Visibility: 7mi
Dew Point: 18°   Wind: 0mph
Humidity: 96%   Direction: NA
Pressure: 30.1"   Gusts: NA
Location:  45.14°N, 89.15°W
Report Text: KAIG 261835Z AUTO 00000KT 7SM SCT036 BKN041 OVC050 M07/M08 A3010 RMK AO2 T10751080
Loading
Personal Weather Stations






























Interactive Weather Map New forecast layout! Learn more

10-Day Weather Forecast

Advertisements
Track Severe Weather on mobile